sensor_id;sensor_type;location;lat;lon;timestamp;temperature;humidity
42031;DHT22;27709;52.036;5.906;2023-09-18T15:39:23;22.60;96.50
42031;DHT22;27709;52.036;5.906;2023-09-18T15:41:50;22.10;96.70
42031;DHT22;27709;52.036;5.906;2023-09-18T15:44:15;22.00;96.70
42031;DHT22;27709;52.036;5.906;2023-09-18T15:46:44;21.70;97.40
42031;DHT22;27709;52.036;5.906;2023-09-18T15:49:09;21.40;97.90
42031;DHT22;27709;52.036;5.906;2023-09-18T15:51:35;21.20;98.70
42031;DHT22;27709;52.036;5.906;2023-09-18T15:54:00;21.00;98.70
42031;DHT22;27709;52.036;5.906;2023-09-18T15:56:26;20.80;99.00
42031;DHT22;27709;52.036;5.906;2023-09-18T15:58:51;20.60;99.60
42031;DHT22;27709;52.036;5.906;2023-09-18T16:01:17;20.40;99.80
42031;DHT22;27709;52.036;5.906;2023-09-18T16:03:43;20.30;99.90
42031;DHT22;27709;52.036;5.906;2023-09-18T16:06:16;20.10;99.90
42031;DHT22;27709;52.036;5.906;2023-09-18T16:08:46;20.00;99.90
42031;DHT22;27709;52.036;5.906;2023-09-18T16:11:12;19.90;99.90
42031;DHT22;27709;52.036;5.906;2023-09-18T16:13:40;19.80;99.90
42031;DHT22;27709;52.036;5.906;2023-09-18T16:16:05;19.80;99.90
42031;DHT22;27709;52.036;5.906;2023-09-18T16:18:31;19.70;99.90
42031;DHT22;27709;52.036;5.906;2023-09-18T16:20:57;19.70;99.90
42031;DHT22;27709;52.036;5.906;2023-09-18T16:23:22;19.70;99.90
42031;DHT22;27709;52.036;5.906;2023-09-18T16:25:48;19.70;99.90
42031;DHT22;27709;52.036;5.906;2023-09-18T16:28:13;19.60;99.90
42031;DHT22;27709;52.036;5.906;2023-09-18T16:30:39;19.60;99.90
42031;DHT22;27709;52.036;5.906;2023-09-18T16:33:04;19.60;99.90
42031;DHT22;27709;52.036;5.906;2023-09-18T16:35:30;19.60;99.90
42031;DHT22;27709;52.036;5.906;2023-09-18T16:37:55;19.60;99.90
42031;DHT22;27709;52.036;5.906;2023-09-18T16:40:21;19.50;99.90
42031;DHT22;27709;52.036;5.906;2023-09-18T16:42:47;19.40;99.90
42031;DHT22;27709;52.036;5.906;2023-09-18T16:45:12;19.30;99.90
42031;DHT22;27709;52.036;5.906;2023-09-18T16:47:38;19.30;99.90
42031;DHT22;27709;52.036;5.906;2023-09-18T16:50:04;19.30;99.90
42031;DHT22;27709;52.036;5.906;2023-09-18T16:52:30;19.30;99.90
42031;DHT22;27709;52.036;5.906;2023-09-18T16:54:56;19.30;99.90
42031;DHT22;27709;52.036;5.906;2023-09-18T16:57:24;19.30;99.90
42031;DHT22;27709;52.036;5.906;2023-09-18T16:59:50;19.30;99.90
42031;DHT22;27709;52.036;5.906;2023-09-18T17:02:15;19.30;99.90
42031;DHT22;27709;52.036;5.906;2023-09-18T17:04:41;19.30;99.90
42031;DHT22;27709;52.036;5.906;2023-09-18T17:07:09;19.30;99.90
42031;DHT22;27709;52.036;5.906;2023-09-18T17:09:36;19.30;99.90
42031;DHT22;27709;52.036;5.906;2023-09-18T17:12:02;19.40;99.90
42031;DHT22;27709;52.036;5.906;2023-09-18T17:14:28;19.50;99.90
42031;DHT22;27709;52.036;5.906;2023-09-18T17:16:54;19.50;99.90
42031;DHT22;27709;52.036;5.906;2023-09-18T17:19:19;19.60;99.90
42031;DHT22;27709;52.036;5.906;2023-09-18T17:21:45;19.60;99.90
42031;DHT22;27709;52.036;5.906;2023-09-18T17:24:10;19.60;99.90
42031;DHT22;27709;52.036;5.906;2023-09-18T17:26:36;19.50;99.90
42031;DHT22;27709;52.036;5.906;2023-09-18T17:29:02;19.50;99.90
42031;DHT22;27709;52.036;5.906;2023-09-18T17:31:31;19.40;99.90
42031;DHT22;27709;52.036;5.906;2023-09-18T17:33:56;19.40;99.90
42031;DHT22;27709;52.036;5.906;2023-09-18T17:36:22;19.30;99.90
42031;DHT22;27709;52.036;5.906;2023-09-18T17:38:48;19.30;99.90
42031;DHT22;27709;52.036;5.906;2023-09-18T17:41:15;19.20;99.90
42031;DHT22;27709;52.036;5.906;2023-09-18T17:43:40;19.20;99.90
42031;DHT22;27709;52.036;5.906;2023-09-18T17:46:06;19.10;99.90
42031;DHT22;27709;52.036;5.906;2023-09-18T17:48:31;19.00;99.90
42031;DHT22;27709;52.036;5.906;2023-09-18T17:50:57;19.00;99.90
42031;DHT22;27709;52.036;5.906;2023-09-18T17:53:28;19.10;99.90
42031;DHT22;27709;52.036;5.906;2023-09-18T17:55:55;19.00;99.90
42031;DHT22;27709;52.036;5.906;2023-09-18T17:58:20;19.00;99.90
42031;DHT22;27709;52.036;5.906;2023-09-18T18:00:46;19.00;99.90
42031;DHT22;27709;52.036;5.906;2023-09-18T18:03:13;19.00;99.90
42031;DHT22;27709;52.036;5.906;2023-09-18T18:05:42;19.00;99.90
42031;DHT22;27709;52.036;5.906;2023-09-18T18:08:11;18.90;99.90
42031;DHT22;27709;52.036;5.906;2023-09-18T18:10:42;18.90;99.90
42031;DHT22;27709;52.036;5.906;2023-09-18T18:13:09;19.00;99.90
42031;DHT22;27709;52.036;5.906;2023-09-18T18:15:37;18.90;99.90
42031;DHT22;27709;52.036;5.906;2023-09-18T18:18:05;19.00;99.90
42031;DHT22;27709;52.036;5.906;2023-09-18T18:20:36;19.00;99.90
42031;DHT22;27709;52.036;5.906;2023-09-18T18:23:03;18.90;99.90
42031;DHT22;27709;52.036;5.906;2023-09-18T18:25:30;18.90;99.90
42031;DHT22;27709;52.036;5.906;2023-09-18T18:27:56;18.90;99.90
42031;DHT22;27709;52.036;5.906;2023-09-18T18:30:21;18.90;99.90
42031;DHT22;27709;52.036;5.906;2023-09-18T18:32:47;18.90;99.90
42031;DHT22;27709;52.036;5.906;2023-09-18T18:35:13;18.90;99.90
42031;DHT22;27709;52.036;5.906;2023-09-18T18:37:43;18.80;99.90
42031;DHT22;27709;52.036;5.906;2023-09-18T18:40:11;18.80;99.90
42031;DHT22;27709;52.036;5.906;2023-09-18T18:42:38;18.80;99.90
42031;DHT22;27709;52.036;5.906;2023-09-18T18:45:04;18.80;99.90
42031;DHT22;27709;52.036;5.906;2023-09-18T18:47:31;18.80;99.90
42031;DHT22;27709;52.036;5.906;2023-09-18T18:49:56;18.80;99.90
42031;DHT22;27709;52.036;5.906;2023-09-18T18:52:22;18.80;99.90
42031;DHT22;27709;52.036;5.906;2023-09-18T18:54:50;18.70;99.90
42031;DHT22;27709;52.036;5.906;2023-09-18T18:57:19;18.70;99.90
42031;DHT22;27709;52.036;5.906;2023-09-18T18:59:45;18.80;99.90
42031;DHT22;27709;52.036;5.906;2023-09-18T19:02:12;18.70;99.90
42031;DHT22;27709;52.036;5.906;2023-09-18T19:04:38;18.70;99.90
42031;DHT22;27709;52.036;5.906;2023-09-18T19:07:04;18.80;99.90
42031;DHT22;27709;52.036;5.906;2023-09-18T19:09:31;18.70;99.90
42031;DHT22;27709;52.036;5.906;2023-09-18T19:11:57;18.70;99.90
42031;DHT22;27709;52.036;5.906;2023-09-18T19:14:25;18.70;99.90
42031;DHT22;27709;52.036;5.906;2023-09-18T19:16:51;18.60;99.90
42031;DHT22;27709;52.036;5.906;2023-09-18T19:19:17;18.70;99.90
42031;DHT22;27709;52.036;5.906;2023-09-18T19:21:43;18.60;99.90
42031;DHT22;27709;52.036;5.906;2023-09-18T19:24:09;18.70;99.90
42031;DHT22;27709;52.036;5.906;2023-09-18T19:26:36;18.70;99.90
42031;DHT22;27709;52.036;5.906;2023-09-18T19:29:01;18.60;99.90
42031;DHT22;27709;52.036;5.906;2023-09-18T19:31:27;18.60;99.90
42031;DHT22;27709;52.036;5.906;2023-09-18T19:33:53;18.60;99.90
42031;DHT22;27709;52.036;5.906;2023-09-18T19:36:20;18.60;99.90
42031;DHT22;27709;52.036;5.906;2023-09-18T19:38:46;18.60;99.90
42031;DHT22;27709;52.036;5.906;2023-09-18T19:41:11;18.60;99.90
42031;DHT22;27709;52.036;5.906;2023-09-18T19:43:37;18.70;99.90
42031;DHT22;27709;52.036;5.906;2023-09-18T19:46:02;18.70;99.90
42031;DHT22;27709;52.036;5.906;2023-09-18T19:48:30;18.70;99.90
42031;DHT22;27709;52.036;5.906;2023-09-18T19:50:56;18.70;99.90
42031;DHT22;27709;52.036;5.906;2023-09-18T19:53:25;18.70;99.90
42031;DHT22;27709;52.036;5.906;2023-09-18T19:55:58;18.70;99.90
42031;DHT22;27709;52.036;5.906;2023-09-18T19:58:25;18.70;99.90
42031;DHT22;27709;52.036;5.906;2023-09-18T20:00:58;18.70;99.90
42031;DHT22;27709;52.036;5.906;2023-09-18T20:03:23;18.70;99.90
42031;DHT22;27709;52.036;5.906;2023-09-18T20:05:49;18.70;99.90
42031;DHT22;27709;52.036;5.906;2023-09-18T20:08:15;18.80;99.90
42031;DHT22;27709;52.036;5.906;2023-09-18T20:10:43;18.90;99.90
42031;DHT22;27709;52.036;5.906;2023-09-18T20:13:09;18.90;99.90
42031;DHT22;27709;52.036;5.906;2023-09-18T20:15:45;18.90;99.90
42031;DHT22;27709;52.036;5.906;2023-09-18T20:18:10;18.90;99.90
42031;DHT22;27709;52.036;5.906;2023-09-18T20:20:36;18.80;99.90
42031;DHT22;27709;52.036;5.906;2023-09-18T20:23:02;18.90;99.90
42031;DHT22;27709;52.036;5.906;2023-09-18T20:25:28;18.90;99.90
42031;DHT22;27709;52.036;5.906;2023-09-18T20:27:53;18.90;99.90
42031;DHT22;27709;52.036;5.906;2023-09-18T20:30:20;19.00;99.90
42031;DHT22;27709;52.036;5.906;2023-09-18T20:32:47;19.00;99.90
42031;DHT22;27709;52.036;5.906;2023-09-18T20:35:13;19.00;99.90
42031;DHT22;27709;52.036;5.906;2023-09-18T20:37:43;19.00;99.90
42031;DHT22;27709;52.036;5.906;2023-09-18T20:40:08;19.00;99.90
42031;DHT22;27709;52.036;5.906;2023-09-18T20:42:34;19.10;99.90
42031;DHT22;27709;52.036;5.906;2023-09-18T20:45:00;19.10;99.90
42031;DHT22;27709;52.036;5.906;2023-09-18T20:47:26;19.10;99.90
42031;DHT22;27709;52.036;5.906;2023-09-18T20:49:53;19.10;99.90
42031;DHT22;27709;52.036;5.906;2023-09-18T20:52:20;19.10;99.90
42031;DHT22;27709;52.036;5.906;2023-09-18T20:54:46;19.10;99.90
42031;DHT22;27709;52.036;5.906;2023-09-18T20:57:11;19.10;99.90
42031;DHT22;27709;52.036;5.906;2023-09-18T20:59:38;19.00;99.90
42031;DHT22;27709;52.036;5.906;2023-09-18T21:02:03;19.10;99.90
42031;DHT22;27709;52.036;5.906;2023-09-18T21:04:32;19.00;99.90
42031;DHT22;27709;52.036;5.906;2023-09-18T21:06:59;18.90;99.90
42031;DHT22;27709;52.036;5.906;2023-09-18T21:09:25;18.80;99.90
42031;DHT22;27709;52.036;5.906;2023-09-18T21:11:52;18.70;99.90
42031;DHT22;27709;52.036;5.906;2023-09-18T21:14:17;18.60;99.90
42031;DHT22;27709;52.036;5.906;2023-09-18T21:16:43;18.60;99.90
42031;DHT22;27709;52.036;5.906;2023-09-18T21:19:08;18.50;99.90
42031;DHT22;27709;52.036;5.906;2023-09-18T21:21:34;18.50;99.90
42031;DHT22;27709;52.036;5.906;2023-09-18T21:23:59;18.40;99.90
42031;DHT22;27709;52.036;5.906;2023-09-18T21:26:25;18.40;99.90
42031;DHT22;27709;52.036;5.906;2023-09-18T21:28:51;18.40;99.90
42031;DHT22;27709;52.036;5.906;2023-09-18T21:31:16;18.40;99.90
42031;DHT22;27709;52.036;5.906;2023-09-18T21:33:46;18.30;99.90
42031;DHT22;27709;52.036;5.906;2023-09-18T21:36:17;18.30;99.90
42031;DHT22;27709;52.036;5.906;2023-09-18T21:38:45;18.30;99.90
42031;DHT22;27709;52.036;5.906;2023-09-18T21:41:11;18.20;99.90
42031;DHT22;27709;52.036;5.906;2023-09-18T21:43:37;18.20;99.90
42031;DHT22;27709;52.036;5.906;2023-09-18T21:46:03;18.20;99.90
42031;DHT22;27709;52.036;5.906;2023-09-18T21:48:28;18.10;99.90
42031;DHT22;27709;52.036;5.906;2023-09-18T21:50:54;18.10;99.90
42031;DHT22;27709;52.036;5.906;2023-09-18T21:53:20;18.10;99.90
42031;DHT22;27709;52.036;5.906;2023-09-18T21:55:46;18.00;99.90
42031;DHT22;27709;52.036;5.906;2023-09-18T21:58:15;18.00;99.90
42031;DHT22;27709;52.036;5.906;2023-09-18T22:00:42;18.00;99.90
42031;DHT22;27709;52.036;5.906;2023-09-18T22:03:09;17.90;99.90
42031;DHT22;27709;52.036;5.906;2023-09-18T22:05:41;17.90;99.90
42031;DHT22;27709;52.036;5.906;2023-09-18T22:08:07;17.90;99.90
42031;DHT22;27709;52.036;5.906;2023-09-18T22:10:33;17.90;99.90
42031;DHT22;27709;52.036;5.906;2023-09-18T22:13:00;17.90;99.90
42031;DHT22;27709;52.036;5.906;2023-09-18T22:15:26;17.80;99.90
42031;DHT22;27709;52.036;5.906;2023-09-18T22:17:52;17.80;99.90
42031;DHT22;27709;52.036;5.906;2023-09-18T22:20:20;17.80;99.90
42031;DHT22;27709;52.036;5.906;2023-09-18T22:22:48;17.80;99.90
42031;DHT22;27709;52.036;5.906;2023-09-18T22:25:14;17.70;99.90
42031;DHT22;27709;52.036;5.906;2023-09-18T22:27:42;17.70;99.90
42031;DHT22;27709;52.036;5.906;2023-09-18T22:30:09;17.70;99.90
42031;DHT22;27709;52.036;5.906;2023-09-18T22:32:37;17.60;99.90
42031;DHT22;27709;52.036;5.906;2023-09-18T22:35:03;17.70;99.90
42031;DHT22;27709;52.036;5.906;2023-09-18T22:37:36;17.60;99.90
42031;DHT22;27709;52.036;5.906;2023-09-18T22:54:53;17.90;99.90
42031;DHT22;27709;52.036;5.906;2023-09-18T22:57:23;17.90;99.90
42031;DHT22;27709;52.036;5.906;2023-09-18T22:59:52;18.00;99.90
42031;DHT22;27709;52.036;5.906;2023-09-18T23:02:18;18.00;99.90
42031;DHT22;27709;52.036;5.906;2023-09-18T23:04:44;17.90;99.90
42031;DHT22;27709;52.036;5.906;2023-09-18T23:07:11;17.90;99.90
42031;DHT22;27709;52.036;5.906;2023-09-18T23:09:37;17.80;99.90
42031;DHT22;27709;52.036;5.906;2023-09-18T23:12:02;17.80;99.90
42031;DHT22;27709;52.036;5.906;2023-09-18T23:14:32;17.80;99.90
42031;DHT22;27709;52.036;5.906;2023-09-18T23:17:08;17.80;99.90
42031;DHT22;27709;52.036;5.906;2023-09-18T23:19:40;17.80;99.90
42031;DHT22;27709;52.036;5.906;2023-09-18T23:22:11;17.80;99.90
42031;DHT22;27709;52.036;5.906;2023-09-18T23:24:38;17.70;99.90
42031;DHT22;27709;52.036;5.906;2023-09-18T23:27:11;17.70;99.90
42031;DHT22;27709;52.036;5.906;2023-09-18T23:29:43;17.60;99.90
42031;DHT22;27709;52.036;5.906;2023-09-18T23:32:11;17.60;99.90
42031;DHT22;27709;52.036;5.906;2023-09-18T23:34:42;17.50;99.90
42031;DHT22;27709;52.036;5.906;2023-09-18T23:37:17;17.50;99.90
42031;DHT22;27709;52.036;5.906;2023-09-18T23:39:43;17.50;99.90
42031;DHT22;27709;52.036;5.906;2023-09-18T23:42:09;17.50;99.90
42031;DHT22;27709;52.036;5.906;2023-09-18T23:44:35;17.40;99.90
42031;DHT22;27709;52.036;5.906;2023-09-18T23:47:06;17.40;99.90
42031;DHT22;27709;52.036;5.906;2023-09-18T23:49:38;17.40;99.90
42031;DHT22;27709;52.036;5.906;2023-09-18T23:52:03;17.30;99.90
42031;DHT22;27709;52.036;5.906;2023-09-18T23:54:29;17.20;99.90
42031;DHT22;27709;52.036;5.906;2023-09-18T23:56:55;17.20;99.90
42031;DHT22;27709;52.036;5.906;2023-09-18T23:59:21;17.10;99.90
